sensor_id;sensor_type;location;lat;lon;timestamp;pressure;altitude;pressure_sealevel;temperature;humidity
18652;BME280;9455;54.302;10.124;2024-03-08T00:00:45;102509.19;;;1.93;100.00
18652;BME280;9455;54.302;10.124;2024-03-08T00:03:12;102505.50;;;2.00;100.00
18652;BME280;9455;54.302;10.124;2024-03-08T00:05:39;102513.25;;;2.06;100.00
18652;BME280;9455;54.302;10.124;2024-03-08T00:08:06;102505.50;;;2.00;100.00
18652;BME280;9455;54.302;10.124;2024-03-08T00:10:35;102509.25;;;1.90;100.00
18652;BME280;9455;54.302;10.124;2024-03-08T00:13:02;102508.16;;;2.00;100.00
18652;BME280;9455;54.302;10.124;2024-03-08T00:15:30;102510.56;;;2.07;100.00
18652;BME280;9455;54.302;10.124;2024-03-08T00:17:57;102502.94;;;1.97;100.00
18652;BME280;9455;54.302;10.124;2024-03-08T00:20:24;102496.84;;;1.95;100.00
18652;BME280;9455;54.302;10.124;2024-03-08T00:22:51;102490.78;;;1.93;100.00
18652;BME280;9455;54.302;10.124;2024-03-08T00:25:17;102497.72;;;1.95;100.00
18652;BME280;9455;54.302;10.124;2024-03-08T00:27:44;102497.16;;;1.83;100.00
18652;BME280;9455;54.302;10.124;2024-03-08T00:30:11;102496.97;;;1.89;100.00
18652;BME280;9455;54.302;10.124;2024-03-08T00:32:40;102500.97;;;1.70;100.00
18652;BME280;9455;54.302;10.124;2024-03-08T00:35:07;102498.28;;;1.73;100.00
18652;BME280;9455;54.302;10.124;2024-03-08T00:37:33;102486.28;;;1.60;100.00
18652;BME280;9455;54.302;10.124;2024-03-08T00:40:00;102497.22;;;1.80;100.00
18652;BME280;9455;54.302;10.124;2024-03-08T00:42:27;102499.97;;;1.74;100.00
18652;BME280;9455;54.302;10.124;2024-03-08T00:44:54;102501.91;;;1.67;100.00
18652;BME280;9455;54.302;10.124;2024-03-08T00:47:20;102492.53;;;1.56;100.00
18652;BME280;9455;54.302;10.124;2024-03-08T00:49:48;102489.03;;;1.54;100.00
18652;BME280;9455;54.302;10.124;2024-03-08T00:52:15;102482.22;;;1.45;100.00
18652;BME280;9455;54.302;10.124;2024-03-08T00:54:43;102485.81;;;1.43;100.00
18652;BME280;9455;54.302;10.124;2024-03-08T00:57:10;102475.22;;;1.46;100.00
18652;BME280;9455;54.302;10.124;2024-03-08T00:59:37;102474.28;;;1.48;100.00
18652;BME280;9455;54.302;10.124;2024-03-08T01:02:04;102470.03;;;1.43;100.00
18652;BME280;9455;54.302;10.124;2024-03-08T01:04:31;102469.34;;;1.35;100.00
18652;BME280;9455;54.302;10.124;2024-03-08T01:06:59;102470.84;;;1.46;100.00
18652;BME280;9455;54.302;10.124;2024-03-08T01:09:27;102464.81;;;1.41;100.00
18652;BME280;9455;54.302;10.124;2024-03-08T01:11:54;102460.56;;;1.36;100.00
18652;BME280;9455;54.302;10.124;2024-03-08T01:14:21;102462.59;;;1.23;100.00
18652;BME280;9455;54.302;10.124;2024-03-08T01:16:48;102458.69;;;1.42;100.00
18652;BME280;9455;54.302;10.124;2024-03-08T01:19:15;102453.59;;;1.33;100.00
18652;BME280;9455;54.302;10.124;2024-03-08T01:21:43;102451.81;;;1.35;100.00
18652;BME280;9455;54.302;10.124;2024-03-08T01:24:11;102449.06;;;1.40;100.00
18652;BME280;9455;54.302;10.124;2024-03-08T01:26:37;102447.25;;;1.43;100.00
18652;BME280;9455;54.302;10.124;2024-03-08T01:29:04;102445.84;;;1.27;100.00
18652;BME280;9455;54.302;10.124;2024-03-08T01:31:31;102437.13;;;1.27;100.00
18652;BME280;9455;54.302;10.124;2024-03-08T01:33:58;102440.47;;;1.33;100.00
18652;BME280;9455;54.302;10.124;2024-03-08T01:36:25;102428.34;;;1.28;100.00
18652;BME280;9455;54.302;10.124;2024-03-08T01:38:52;102433.28;;;1.40;100.00
18652;BME280;9455;54.302;10.124;2024-03-08T01:41:20;102434.22;;;1.39;100.00
18652;BME280;9455;54.302;10.124;2024-03-08T01:43:46;102421.19;;;1.33;100.00
18652;BME280;9455;54.302;10.124;2024-03-08T01:46:16;102421.25;;;1.30;100.00
18652;BME280;9455;54.302;10.124;2024-03-08T01:48:44;102416.91;;;1.29;100.00
18652;BME280;9455;54.302;10.124;2024-03-08T01:51:11;102411.75;;;1.24;100.00
18652;BME280;9455;54.302;10.124;2024-03-08T01:53:40;102412.09;;;1.09;100.00
18652;BME280;9455;54.302;10.124;2024-03-08T01:56:11;102411.03;;;1.18;100.00
18652;BME280;9455;54.302;10.124;2024-03-08T01:58:40;102400.41;;;1.24;100.00
18652;BME280;9455;54.302;10.124;2024-03-08T02:01:10;102406.91;;;1.06;100.00
18652;BME280;9455;54.302;10.124;2024-03-08T02:03:37;102404.31;;;1.05;100.00
18652;BME280;9455;54.302;10.124;2024-03-08T02:06:04;102399.00;;;1.08;100.00
18652;BME280;9455;54.302;10.124;2024-03-08T02:08:35;102404.13;;;1.14;100.00
18652;BME280;9455;54.302;10.124;2024-03-08T02:11:02;102402.50;;;1.08;100.00
18652;BME280;9455;54.302;10.124;2024-03-08T02:13:28;102393.63;;;1.14;100.00
18652;BME280;9455;54.302;10.124;2024-03-08T02:15:57;102392.53;;;1.24;100.00
18652;BME280;9455;54.302;10.124;2024-03-08T02:18:26;102385.72;;;1.15;100.00
18652;BME280;9455;54.302;10.124;2024-03-08T02:20:54;102382.09;;;1.19;100.00
18652;BME280;9455;54.302;10.124;2024-03-08T02:23:22;102379.66;;;1.12;100.00
18652;BME280;9455;54.302;10.124;2024-03-08T02:25:49;102375.97;;;1.19;100.00
18652;BME280;9455;54.302;10.124;2024-03-08T02:28:16;102374.19;;;1.21;100.00
18652;BME280;9455;54.302;10.124;2024-03-08T02:30:44;102371.69;;;1.15;100.00
18652;BME280;9455;54.302;10.124;2024-03-08T02:33:13;102362.03;;;1.17;100.00
18652;BME280;9455;54.302;10.124;2024-03-08T02:35:42;102362.09;;;1.14;100.00
18652;BME280;9455;54.302;10.124;2024-03-08T02:38:12;102365.56;;;1.14;100.00
18652;BME280;9455;54.302;10.124;2024-03-08T02:40:41;102369.88;;;1.18;100.00
18652;BME280;9455;54.302;10.124;2024-03-08T02:43:08;102361.66;;;1.32;100.00
18652;BME280;9455;54.302;10.124;2024-03-08T02:45:34;102365.28;;;1.28;100.00
18652;BME280;9455;54.302;10.124;2024-03-08T02:48:01;102365.66;;;1.11;100.00
18652;BME280;9455;54.302;10.124;2024-03-08T02:50:28;102362.88;;;1.17;100.00
18652;BME280;9455;54.302;10.124;2024-03-08T02:52:54;102361.09;;;1.19;100.00
18652;BME280;9455;54.302;10.124;2024-03-08T02:55:23;102359.03;;;1.32;100.00
18652;BME280;9455;54.302;10.124;2024-03-08T02:57:51;102359.78;;;1.37;100.00
18652;BME280;9455;54.302;10.124;2024-03-08T03:00:20;102358.72;;;1.44;100.00
18652;BME280;9455;54.302;10.124;2024-03-08T03:02:48;102359.50;;;1.49;100.00
18652;BME280;9455;54.302;10.124;2024-03-08T03:05:17;102361.81;;;1.61;100.00
18652;BME280;9455;54.302;10.124;2024-03-08T03:07:44;102359.22;;;1.59;100.00
18652;BME280;9455;54.302;10.124;2024-03-08T03:10:10;102364.31;;;1.67;100.00
18652;BME280;9455;54.302;10.124;2024-03-08T03:12:39;102360.88;;;1.65;100.00
18652;BME280;9455;54.302;10.124;2024-03-08T03:15:06;102359.34;;;1.90;100.00
18652;BME280;9455;54.302;10.124;2024-03-08T03:17:33;102361.84;;;1.94;100.00
18652;BME280;9455;54.302;10.124;2024-03-08T03:19:59;102360.06;;;1.95;100.00
18652;BME280;9455;54.302;10.124;2024-03-08T03:22:29;102355.94;;;1.85;100.00
18652;BME280;9455;54.302;10.124;2024-03-08T03:24:56;102361.47;;;2.08;100.00
18652;BME280;9455;54.302;10.124;2024-03-08T03:27:23;102359.41;;;2.19;100.00
18652;BME280;9455;54.302;10.124;2024-03-08T03:29:51;102357.34;;;2.30;100.00
18652;BME280;9455;54.302;10.124;2024-03-08T03:32:18;102358.22;;;2.30;100.00
18652;BME280;9455;54.302;10.124;2024-03-08T03:34:44;102353.63;;;2.37;100.00
18652;BME280;9455;54.302;10.124;2024-03-08T03:37:11;102355.47;;;2.35;100.00
18652;BME280;9455;54.302;10.124;2024-03-08T03:39:39;102349.16;;;2.40;100.00
18652;BME280;9455;54.302;10.124;2024-03-08T03:42:14;102350.72;;;2.47;100.00
18652;BME280;9455;54.302;10.124;2024-03-08T03:44:41;102349.66;;;2.53;100.00
18652;BME280;9455;54.302;10.124;2024-03-08T03:47:10;102339.66;;;2.65;100.00
18652;BME280;9455;54.302;10.124;2024-03-08T03:49:36;102347.66;;;2.61;100.00
18652;BME280;9455;54.302;10.124;2024-03-08T03:52:03;102344.75;;;2.71;100.00
18652;BME280;9455;54.302;10.124;2024-03-08T03:54:31;102344.81;;;2.68;100.00
18652;BME280;9455;54.302;10.124;2024-03-08T03:56:58;102348.88;;;2.80;100.00
18652;BME280;9455;54.302;10.124;2024-03-08T03:59:25;102339.44;;;2.73;100.00
18652;BME280;9455;54.302;10.124;2024-03-08T04:01:52;102348.88;;;2.80;100.00
18652;BME280;9455;54.302;10.124;2024-03-08T04:04:21;102336.50;;;2.82;100.00
18652;BME280;9455;54.302;10.124;2024-03-08T04:06:48;102345.22;;;2.84;100.00
18652;BME280;9455;54.302;10.124;2024-03-08T04:09:16;102348.50;;;2.92;100.00
18652;BME280;9455;54.302;10.124;2024-03-08T04:11:44;102339.31;;;2.77;100.00
18652;BME280;9455;54.302;10.124;2024-03-08T04:14:11;102330.31;;;2.84;100.00
18652;BME280;9455;54.302;10.124;2024-03-08T04:16:37;102335.28;;;2.93;100.00
18652;BME280;9455;54.302;10.124;2024-03-08T04:19:04;102325.53;;;2.97;100.00
18652;BME280;9455;54.302;10.124;2024-03-08T04:21:32;102324.69;;;2.95;100.00
18652;BME280;9455;54.302;10.124;2024-03-08T04:23:59;102327.16;;;3.01;100.00
18652;BME280;9455;54.302;10.124;2024-03-08T04:26:26;102328.78;;;3.05;100.00
18652;BME280;9455;54.302;10.124;2024-03-08T04:28:52;102329.38;;;3.13;100.00
18652;BME280;9455;54.302;10.124;2024-03-08T04:31:19;102327.06;;;3.04;100.00
18652;BME280;9455;54.302;10.124;2024-03-08T04:33:47;102324.38;;;3.06;100.00
18652;BME280;9455;54.302;10.124;2024-03-08T04:36:13;102325.22;;;3.06;100.00
18652;BME280;9455;54.302;10.124;2024-03-08T04:38:41;102331.44;;;3.04;100.00
18652;BME280;9455;54.302;10.124;2024-03-08T04:41:08;102327.81;;;3.08;100.00
18652;BME280;9455;54.302;10.124;2024-03-08T04:43:35;102327.75;;;3.09;100.00
18652;BME280;9455;54.302;10.124;2024-03-08T04:46:02;102332.47;;;3.26;100.00
18652;BME280;9455;54.302;10.124;2024-03-08T04:48:30;102318.88;;;3.12;100.00
18652;BME280;9455;54.302;10.124;2024-03-08T04:50:57;102321.38;;;3.16;100.00
18652;BME280;9455;54.302;10.124;2024-03-08T04:53:24;102316.28;;;3.10;100.00
18652;BME280;9455;54.302;10.124;2024-03-08T04:55:52;102316.09;;;3.16;100.00
18652;BME280;9455;54.302;10.124;2024-03-08T04:58:18;102311.72;;;3.17;100.00
18652;BME280;9455;54.302;10.124;2024-03-08T05:00:46;102310.03;;;3.14;100.00
18652;BME280;9455;54.302;10.124;2024-03-08T05:03:13;102311.41;;;3.26;100.00
18652;BME280;9455;54.302;10.124;2024-03-08T05:05:40;102311.03;;;3.10;100.00
18652;BME280;9455;54.302;10.124;2024-03-08T05:08:06;102304.81;;;3.13;100.00
18652;BME280;9455;54.302;10.124;2024-03-08T05:10:33;102306.91;;;3.29;100.00
18652;BME280;9455;54.302;10.124;2024-03-08T05:13:01;102300.38;;;3.13;100.00
18652;BME280;9455;54.302;10.124;2024-03-08T05:15:27;102309.81;;;3.20;100.00
18652;BME280;9455;54.302;10.124;2024-03-08T05:17:54;102305.19;;;3.28;100.00
18652;BME280;9455;54.302;10.124;2024-03-08T05:20:23;102305.09;;;3.31;100.00
18652;BME280;9455;54.302;10.124;2024-03-08T05:22:49;102302.13;;;3.40;100.00
18652;BME280;9455;54.302;10.124;2024-03-08T05:25:18;102301.53;;;3.32;100.00
18652;BME280;9455;54.302;10.124;2024-03-08T05:27:44;102296.81;;;3.42;100.00
18652;BME280;9455;54.302;10.124;2024-03-08T05:30:14;102298.81;;;3.35;100.00
18652;BME280;9455;54.302;10.124;2024-03-08T05:32:41;102293.44;;;3.38;100.00
18652;BME280;9455;54.302;10.124;2024-03-08T05:35:10;102297.00;;;3.36;100.00
18652;BME280;9455;54.302;10.124;2024-03-08T05:37:37;102298.63;;;3.40;100.00
18652;BME280;9455;54.302;10.124;2024-03-08T05:40:05;102294.91;;;3.47;100.00
18652;BME280;9455;54.302;10.124;2024-03-08T05:42:34;102298.44;;;3.46;100.00
18652;BME280;9455;54.302;10.124;2024-03-08T05:45:01;102294.91;;;3.47;100.00
18652;BME280;9455;54.302;10.124;2024-03-08T05:47:29;102290.66;;;3.41;100.00
18652;BME280;9455;54.302;10.124;2024-03-08T05:49:56;102287.84;;;3.47;100.00
18652;BME280;9455;54.302;10.124;2024-03-08T05:52:23;102288.75;;;3.46;100.00
18652;BME280;9455;54.302;10.124;2024-03-08T05:54:51;102290.38;;;3.50;100.00
18652;BME280;9455;54.302;10.124;2024-03-08T05:57:17;102293.16;;;3.46;100.00
18652;BME280;9455;54.302;10.124;2024-03-08T05:59:44;102292.41;;;3.42;100.00
18652;BME280;9455;54.302;10.124;2024-03-08T06:02:10;102292.38;;;3.44;100.00
18652;BME280;9455;54.302;10.124;2024-03-08T06:04:39;102295.56;;;3.53;100.00
18652;BME280;9455;54.302;10.124;2024-03-08T06:07:08;102285.53;;;3.63;100.00
18652;BME280;9455;54.302;10.124;2024-03-08T06:09:37;102294.72;;;3.51;100.00
18652;BME280;9455;54.302;10.124;2024-03-08T06:12:05;102287.50;;;3.58;100.00
18652;BME280;9455;54.302;10.124;2024-03-08T06:14:34;102288.13;;;3.64;100.00
18652;BME280;9455;54.302;10.124;2024-03-08T06:17:01;102283.88;;;3.60;100.00
18652;BME280;9455;54.302;10.124;2024-03-08T06:19:28;102276.88;;;3.59;100.00
18652;BME280;9455;54.302;10.124;2024-03-08T06:21:56;102283.34;;;3.75;100.00
18652;BME280;9455;54.302;10.124;2024-03-08T06:24:23;102282.66;;;3.70;100.00
18652;BME280;9455;54.302;10.124;2024-03-08T06:26:49;102281.84;;;3.68;100.00
18652;BME280;9455;54.302;10.124;2024-03-08T06:29:16;102291.25;;;3.75;100.00
18652;BME280;9455;54.302;10.124;2024-03-08T06:31:42;102287.94;;;3.70;100.00
18652;BME280;9455;54.302;10.124;2024-03-08T06:34:09;102283.88;;;3.60;100.00
18652;BME280;9455;54.302;10.124;2024-03-08T06:36:36;102285.25;;;3.72;100.00
18652;BME280;9455;54.302;10.124;2024-03-08T06:39:05;102287.00;;;3.71;100.00
18652;BME280;9455;54.302;10.124;2024-03-08T06:41:35;102269.03;;;3.82;100.00
18652;BME280;9455;54.302;10.124;2024-03-08T06:44:02;102274.69;;;3.72;100.00
18652;BME280;9455;54.302;10.124;2024-03-08T06:46:28;102271.00;;;3.51;100.00
18652;BME280;9455;54.302;10.124;2024-03-08T06:48:55;102279.16;;;3.70;100.00
18652;BME280;9455;54.302;10.124;2024-03-08T06:51:22;102278.81;;;3.54;100.00
18652;BME280;9455;54.302;10.124;2024-03-08T06:53:49;102278.91;;;3.51;100.00
18652;BME280;9455;54.302;10.124;2024-03-08T06:56:18;102279.78;;;3.52;100.00
18652;BME280;9455;54.302;10.124;2024-03-08T06:58:45;102266.22;;;3.62;100.00
18652;BME280;9455;54.302;10.124;2024-03-08T07:01:13;102271.38;;;3.65;100.00
18652;BME280;9455;54.302;10.124;2024-03-08T07:03:41;102274.09;;;3.88;100.00
18652;BME280;9455;54.302;10.124;2024-03-08T07:06:09;102274.00;;;3.91;100.00
18652;BME280;9455;54.302;10.124;2024-03-08T07:08:36;102276.19;;;3.79;100.00
18652;BME280;9455;54.302;10.124;2024-03-08T07:11:03;102284.75;;;3.85;100.00
18652;BME280;9455;54.302;10.124;2024-03-08T07:13:45;102275.53;;;3.72;100.00
18652;BME280;9455;54.302;10.124;2024-03-08T07:16:35;102281.28;;;3.85;100.00
18652;BME280;9455;54.302;10.124;2024-03-08T07:19:02;102274.13;;;3.87;100.00
18652;BME280;9455;54.302;10.124;2024-03-08T07:21:28;102273.81;;;3.96;100.00
18652;BME280;9455;54.302;10.124;2024-03-08T07:23:55;102279.63;;;4.05;100.00
18652;BME280;9455;54.302;10.124;2024-03-08T07:26:38;102273.88;;;4.17;100.00
18652;BME280;9455;54.302;10.124;2024-03-08T07:29:06;102274.97;;;4.12;100.00
18652;BME280;9455;54.302;10.124;2024-03-08T07:31:34;102277.97;;;4.26;100.00
18652;BME280;9455;54.302;10.124;2024-03-08T07:34:15;102267.78;;;3.92;100.00
18652;BME280;9455;54.302;10.124;2024-03-08T07:36:42;102270.09;;;4.01;100.00
18652;BME280;9455;54.302;10.124;2024-03-08T07:39:08;102268.81;;;4.13;100.00
18652;BME280;9455;54.302;10.124;2024-03-08T07:41:37;102263.09;;;4.00;100.00
18652;BME280;9455;54.302;10.124;2024-03-08T07:44:06;102266.81;;;3.95;100.00
18652;BME280;9455;54.302;10.124;2024-03-08T07:46:33;102266.69;;;3.98;100.00
18652;BME280;9455;54.302;10.124;2024-03-08T07:49:00;102261.38;;;3.99;100.00
18652;BME280;9455;54.302;10.124;2024-03-08T07:51:28;102255.47;;;3.93;100.00
18652;BME280;9455;54.302;10.124;2024-03-08T07:53:55;102255.13;;;4.25;100.00
18652;BME280;9455;54.302;10.124;2024-03-08T07:56:22;102249.84;;;4.25;100.00
18652;BME280;9455;54.302;10.124;2024-03-08T07:58:50;102257.41;;;4.35;100.00
18652;BME280;9455;54.302;10.124;2024-03-08T08:01:19;102250.47;;;4.31;100.00
18652;BME280;9455;54.302;10.124;2024-03-08T08:03:46;102250.44;;;4.10;100.00
18652;BME280;9455;54.302;10.124;2024-03-08T08:06:15;102253.69;;;4.16;100.00
18652;BME280;9455;54.302;10.124;2024-03-08T08:08:42;102257.25;;;4.38;100.00
18652;BME280;9455;54.302;10.124;2024-03-08T08:11:08;102258.41;;;4.31;100.00
18652;BME280;9455;54.302;10.124;2024-03-08T08:13:36;102256.25;;;4.42;100.00
18652;BME280;9455;54.302;10.124;2024-03-08T08:16:12;102253.13;;;4.54;100.00
18652;BME280;9455;54.302;10.124;2024-03-08T08:18:41;102258.72;;;4.24;100.00
18652;BME280;9455;54.302;10.124;2024-03-08T08:21:07;102255.09;;;4.49;100.00
18652;BME280;9455;54.302;10.124;2024-03-08T08:23:34;102252.84;;;4.39;100.00
18652;BME280;9455;54.302;10.124;2024-03-08T08:26:00;102254.41;;;4.21;100.00
18652;BME280;9455;54.302;10.124;2024-03-08T08:28:28;102258.00;;;4.42;100.00
18652;BME280;9455;54.302;10.124;2024-03-08T08:30:56;102252.94;;;4.36;100.00
18652;BME280;9455;54.302;10.124;2024-03-08T08:33:22;102256.09;;;4.45;100.00
18652;BME280;9455;54.302;10.124;2024-03-08T08:35:52;102250.25;;;4.60;100.00
18652;BME280;9455;54.302;10.124;2024-03-08T08:38:19;102247.50;;;4.63;100.00
18652;BME280;9455;54.302;10.124;2024-03-08T08:40:46;102253.09;;;4.77;100.00
18652;BME280;9455;54.302;10.124;2024-03-08T08:43:13;102250.03;;;4.66;100.00
18652;BME280;9455;54.302;10.124;2024-03-08T08:45:40;102245.91;;;4.59;100.00
18652;BME280;9455;54.302;10.124;2024-03-08T08:48:08;102252.50;;;4.48;100.00
18652;BME280;9455;54.302;10.124;2024-03-08T08:50:35;102254.00;;;4.55;100.00
18652;BME280;9455;54.302;10.124;2024-03-08T08:53:04;102249.44;;;4.58;100.00
18652;BME280;9455;54.302;10.124;2024-03-08T08:55:32;102240.66;;;4.58;100.00
18652;BME280;9455;54.302;10.124;2024-03-08T08:58:01;102235.94;;;4.66;100.00
18652;BME280;9455;54.302;10.124;2024-03-08T09:00:28;102231.06;;;4.55;100.00
18652;BME280;9455;54.302;10.124;2024-03-08T09:02:56;102231.59;;;4.65;100.00
18652;BME280;9455;54.302;10.124;2024-03-08T09:05:23;102236.19;;;4.81;100.00
18652;BME280;9455;54.302;10.124;2024-03-08T09:07:50;102232.56;;;4.84;100.00
18652;BME280;9455;54.302;10.124;2024-03-08T09:10:18;102222.75;;;4.87;100.00
18652;BME280;9455;54.302;10.124;2024-03-08T09:12:45;102219.13;;;4.90;100.00
18652;BME280;9455;54.302;10.124;2024-03-08T09:15:12;102222.88;;;4.84;100.00
18652;BME280;9455;54.302;10.124;2024-03-08T09:17:39;102215.34;;;4.95;100.00
18652;BME280;9455;54.302;10.124;2024-03-08T09:20:07;102218.81;;;4.97;100.00
18652;BME280;9455;54.302;10.124;2024-03-08T09:22:34;102212.06;;;5.10;100.00
18652;BME280;9455;54.302;10.124;2024-03-08T09:25:00;102212.59;;;4.98;100.00
18652;BME280;9455;54.302;10.124;2024-03-08T09:27:29;102207.06;;;5.04;100.00
18652;BME280;9455;54.302;10.124;2024-03-08T09:29:55;102210.25;;;5.12;100.00
18652;BME280;9455;54.302;10.124;2024-03-08T09:32:22;102212.03;;;5.32;100.00
18652;BME280;9455;54.302;10.124;2024-03-08T09:34:49;102198.78;;;5.12;100.00
18652;BME280;9455;54.302;10.124;2024-03-08T09:37:15;102200.38;;;5.16;100.00
18652;BME280;9455;54.302;10.124;2024-03-08T09:39:42;102199.63;;;5.34;100.00
18652;BME280;9455;54.302;10.124;2024-03-08T09:42:09;102195.72;;;5.22;100.00
18652;BME280;9455;54.302;10.124;2024-03-08T09:44:44;102196.78;;;5.18;100.00
18652;BME280;9455;54.302;10.124;2024-03-08T09:47:13;102189.75;;;5.37;100.00
18652;BME280;9455;54.302;10.124;2024-03-08T09:49:40;102187.50;;;5.48;100.00
18652;BME280;9455;54.302;10.124;2024-03-08T09:52:07;102184.53;;;5.56;100.00
18652;BME280;9455;54.302;10.124;2024-03-08T09:54:35;102180.25;;;5.53;100.00
18652;BME280;9455;54.302;10.124;2024-03-08T09:57:03;102169.94;;;5.47;100.00
18652;BME280;9455;54.302;10.124;2024-03-08T09:59:30;102170.97;;;5.63;100.00
18652;BME280;9455;54.302;10.124;2024-03-08T10:02:14;102173.13;;;5.74;100.00
18652;BME280;9455;54.302;10.124;2024-03-08T10:04:41;102160.09;;;5.69;100.00
18652;BME280;9455;54.302;10.124;2024-03-08T10:07:08;102163.63;;;5.70;100.00
18652;BME280;9455;54.302;10.124;2024-03-08T10:09:35;102165.81;;;5.81;100.00
18652;BME280;9455;54.302;10.124;2024-03-08T10:12:02;102158.25;;;5.92;100.00
18652;BME280;9455;54.302;10.124;2024-03-08T10:14:30;102153.44;;;5.81;100.00
18652;BME280;9455;54.302;10.124;2024-03-08T10:16:57;102155.69;;;5.90;100.00
18652;BME280;9455;54.302;10.124;2024-03-08T10:19:26;102141.59;;;6.08;100.00
18652;BME280;9455;54.302;10.124;2024-03-08T10:21:55;102145.00;;;6.29;100.00
18652;BME280;9455;54.302;10.124;2024-03-08T10:24:24;102146.03;;;6.26;100.00
18652;BME280;9455;54.302;10.124;2024-03-08T10:26:52;102149.53;;;5.90;100.00
18652;BME280;9455;54.302;10.124;2024-03-08T10:29:19;102141.94;;;6.01;100.00
18652;BME280;9455;54.302;10.124;2024-03-08T10:31:46;102138.00;;;6.09;100.00
18652;BME280;9455;54.302;10.124;2024-03-08T10:34:13;102140.78;;;6.25;100.00
18652;BME280;9455;54.302;10.124;2024-03-08T10:36:41;102130.06;;;6.28;100.00
18652;BME280;9455;54.302;10.124;2024-03-08T10:39:16;102130.72;;;6.14;100.00
18652;BME280;9455;54.302;10.124;2024-03-08T10:41:52;102126.72;;;6.24;100.00
18652;BME280;9455;54.302;10.124;2024-03-08T10:44:38;102116.81;;;6.28;100.00
18652;BME280;9455;54.302;10.124;2024-03-08T10:47:15;102121.47;;;6.41;100.00
18652;BME280;9455;54.302;10.124;2024-03-08T10:49:50;102122.50;;;6.56;100.00
18652;BME280;9455;54.302;10.124;2024-03-08T10:52:19;102122.31;;;6.42;100.00
18652;BME280;9455;54.302;10.124;2024-03-08T10:54:47;102113.72;;;6.37;100.00
18652;BME280;9455;54.302;10.124;2024-03-08T10:57:17;102107.34;;;6.41;100.00
18652;BME280;9455;54.302;10.124;2024-03-08T10:59:45;102103.41;;;6.49;100.00
18652;BME280;9455;54.302;10.124;2024-03-08T11:02:12;102099.25;;;6.44;100.00
18652;BME280;9455;54.302;10.124;2024-03-08T11:04:39;102109.81;;;6.79;100.00
18652;BME280;9455;54.302;10.124;2024-03-08T11:07:06;102100.88;;;6.82;100.00
18652;BME280;9455;54.302;10.124;2024-03-08T11:09:35;102092.34;;;6.75;100.00
18652;BME280;9455;54.302;10.124;2024-03-08T11:12:22;102087.28;;;6.88;100.00
18652;BME280;9455;54.302;10.124;2024-03-08T11:14:52;102088.16;;;6.88;100.00
18652;BME280;9455;54.302;10.124;2024-03-08T11:17:40;102081.22;;;6.86;100.00
18652;BME280;9455;54.302;10.124;2024-03-08T11:20:09;102081.06;;;6.72;100.00
18652;BME280;9455;54.302;10.124;2024-03-08T11:22:41;102068.03;;;6.84;100.00
18652;BME280;9455;54.302;10.124;2024-03-08T11:25:31;102074.19;;;6.68;100.00
18652;BME280;9455;54.302;10.124;2024-03-08T11:28:10;102067.03;;;6.87;100.00
18652;BME280;9455;54.302;10.124;2024-03-08T11:30:42;102064.38;;;6.87;100.00
18652;BME280;9455;54.302;10.124;2024-03-08T11:33:11;102059.78;;;6.90;100.00
18652;BME280;9455;54.302;10.124;2024-03-08T11:35:39;102052.38;;;6.97;100.00
18652;BME280;9455;54.302;10.124;2024-03-08T11:38:07;102048.53;;;7.02;100.00
18652;BME280;9455;54.302;10.124;2024-03-08T11:40:35;102054.16;;;6.96;100.00
18652;BME280;9455;54.302;10.124;2024-03-08T11:43:03;102040.66;;;7.01;100.00
18652;BME280;9455;54.302;10.124;2024-03-08T11:45:33;102039.41;;;7.08;100.00
18652;BME280;9455;54.302;10.124;2024-03-08T11:48:01;102035.50;;;6.81;100.00
18652;BME280;9455;54.302;10.124;2024-03-08T11:50:29;102025.25;;;6.92;100.00
18652;BME280;9455;54.302;10.124;2024-03-08T11:53:00;102033.66;;;6.83;100.00
18652;BME280;9455;54.302;10.124;2024-03-08T11:55:27;102027.69;;;7.12;100.00
18652;BME280;9455;54.302;10.124;2024-03-08T11:58:04;102019.25;;;7.21;100.00
18652;BME280;9455;54.302;10.124;2024-03-08T12:00:33;102023.59;;;7.22;100.00
18652;BME280;9455;54.302;10.124;2024-03-08T12:03:04;102017.44;;;6.89;100.00
18652;BME280;9455;54.302;10.124;2024-03-08T12:05:31;102018.97;;;7.10;100.00
18652;BME280;9455;54.302;10.124;2024-03-08T12:07:59;102012.75;;;7.26;100.00
18652;BME280;9455;54.302;10.124;2024-03-08T12:10:26;102006.69;;;7.40;100.00
18652;BME280;9455;54.302;10.124;2024-03-08T12:12:54;102005.81;;;7.24;100.00
18652;BME280;9455;54.302;10.124;2024-03-08T12:15:26;101995.72;;;7.30;100.00
18652;BME280;9455;54.302;10.124;2024-03-08T12:17:54;101992.25;;;6.97;100.00
18652;BME280;9455;54.302;10.124;2024-03-08T12:20:23;101997.59;;;7.13;100.00
18652;BME280;9455;54.302;10.124;2024-03-08T12:22:51;101992.47;;;7.25;100.00
18652;BME280;9455;54.302;10.124;2024-03-08T12:25:18;101980.13;;;7.09;100.00
18652;BME280;9455;54.302;10.124;2024-03-08T12:27:45;101978.28;;;7.42;100.00
18652;BME280;9455;54.302;10.124;2024-03-08T12:30:20;101979.09;;;7.44;100.00
18652;BME280;9455;54.302;10.124;2024-03-08T12:32:55;101981.66;;;7.61;100.00
18652;BME280;9455;54.302;10.124;2024-03-08T12:35:23;101978.66;;;7.67;100.00
18652;BME280;9455;54.302;10.124;2024-03-08T12:37:52;101967.88;;;7.70;100.00
18652;BME280;9455;54.302;10.124;2024-03-08T12:40:25;101964.19;;;7.72;100.00
18652;BME280;9455;54.302;10.124;2024-03-08T12:42:53;101961.44;;;7.74;100.00
18652;BME280;9455;54.302;10.124;2024-03-08T12:45:20;101952.28;;;7.64;100.00
18652;BME280;9455;54.302;10.124;2024-03-08T12:47:49;101959.22;;;7.82;100.00
18652;BME280;9455;54.302;10.124;2024-03-08T12:50:17;101946.13;;;7.79;100.00
18652;BME280;9455;54.302;10.124;2024-03-08T12:52:44;101948.00;;;7.61;100.00
18652;BME280;9455;54.302;10.124;2024-03-08T12:55:11;101944.91;;;7.69;100.00